createdAt,value
2022-11-29T00:00:05.151Z,511.60
2022-11-29T00:01:05.167Z,293.50
2022-11-29T00:02:05.312Z,234.50
2022-11-29T00:03:05.265Z,148.70
2022-11-29T00:04:05.114Z,144.90
2022-11-29T00:05:05.105Z,144.60
2022-11-29T00:06:05.101Z,361.60
2022-11-29T00:07:05.085Z,310.10
2022-11-29T00:08:05.078Z,198.90
2022-11-29T00:09:05.054Z,289.90
2022-11-29T00:10:06.061Z,292.80
2022-11-29T00:11:05.066Z,173.70
2022-11-29T00:12:05.043Z,427.30
2022-11-29T00:13:05.037Z,208.80
2022-11-29T00:14:05.026Z,221.20
2022-11-29T00:15:05.014Z,168.60
2022-11-29T00:16:05.015Z,143.70
2022-11-29T00:17:05.030Z,340.30
2022-11-29T00:18:04.991Z,168.80
2022-11-29T00:19:04.979Z,132.30
2022-11-29T00:20:04.971Z,194.80
2022-11-29T00:21:04.988Z,233.60
2022-11-29T00:22:04.956Z,139.20
2022-11-29T00:23:04.946Z,134.40
2022-11-29T00:24:04.931Z,150.40
2022-11-29T00:25:04.925Z,278.20
2022-11-29T00:26:04.927Z,192.80
2022-11-29T00:27:04.913Z,140.50
2022-11-29T00:28:04.903Z,309.00
2022-11-29T00:29:04.900Z,422.80
2022-11-29T00:30:04.896Z,127.20
2022-11-29T00:31:04.934Z,127.20
2022-11-29T00:32:04.867Z,150.00
2022-11-29T00:33:04.860Z,196.50
2022-11-29T00:34:04.846Z,147.30
2022-11-29T00:35:09.426Z,129.70
2022-11-29T00:36:06.843Z,115.20
2022-11-29T00:37:04.820Z,93.90
2022-11-29T00:38:04.811Z,103.00
2022-11-29T00:39:04.799Z,110.60
2022-11-29T00:40:04.793Z,105.20
2022-11-29T00:41:04.800Z,103.00
2022-11-29T00:42:04.775Z,93.20
2022-11-29T00:43:04.766Z,133.30
2022-11-29T00:44:04.754Z,144.40
2022-11-29T00:45:04.750Z,167.60
2022-11-29T00:46:04.775Z,295.00
2022-11-29T00:47:04.736Z,165.10
2022-11-29T00:48:04.725Z,127.10
2022-11-29T00:49:04.715Z,97.40
2022-11-29T00:50:04.713Z,95.00
2022-11-29T00:51:04.712Z,105.80
2022-11-29T00:52:04.687Z,101.70
2022-11-29T00:53:04.683Z,103.10
2022-11-29T00:54:04.672Z,90.90
2022-11-29T00:55:04.666Z,106.50
2022-11-29T00:56:04.667Z,94.20
2022-11-29T00:57:04.644Z,87.90
2022-11-29T00:58:04.634Z,114.30
2022-11-29T00:59:04.627Z,84.10
2022-11-29T01:00:04.622Z,83.00
2022-11-29T01:01:04.665Z,84.90
2022-11-29T01:02:04.641Z,76.30
2022-11-29T01:03:04.582Z,78.80
2022-11-29T01:04:05.589Z,78.90
2022-11-29T01:05:04.576Z,73.50
2022-11-29T01:06:04.573Z,76.90
2022-11-29T01:07:04.557Z,79.40
2022-11-29T01:08:04.556Z,106.90
2022-11-29T01:09:04.537Z,91.60
2022-11-29T01:10:04.533Z,72.20
2022-11-29T01:11:04.527Z,76.80
2022-11-29T01:12:05.517Z,75.40
2022-11-29T01:13:04.504Z,73.70
2022-11-29T01:14:04.510Z,102.20
2022-11-29T01:15:04.488Z,68.80
2022-11-29T01:16:04.488Z,99.30
2022-11-29T01:17:04.484Z,84.90
2022-11-29T01:18:04.461Z,84.40
2022-11-29T01:19:04.454Z,94.10
2022-11-29T01:20:04.445Z,82.70
2022-11-29T01:21:04.449Z,72.60
2022-11-29T01:22:04.427Z,86.60
2022-11-29T01:23:04.410Z,73.70
2022-11-29T01:24:05.402Z,149.60
2022-11-29T01:25:04.400Z,80.90
2022-11-29T01:26:04.400Z,85.90
2022-11-29T01:27:04.379Z,79.50
2022-11-29T01:28:04.370Z,65.50
2022-11-29T01:29:04.362Z,72.60
2022-11-29T01:30:04.353Z,63.30
2022-11-29T01:31:04.398Z,68.90
2022-11-29T01:32:04.332Z,61.20
2022-11-29T01:33:04.331Z,70.20
2022-11-29T01:34:04.315Z,60.40
2022-11-29T01:35:04.307Z,75.50
2022-11-29T01:36:04.307Z,65.60
2022-11-29T01:37:04.292Z,61.40
2022-11-29T01:38:04.281Z,60.80
2022-11-29T01:39:04.268Z,63.70
2022-11-29T01:40:04.257Z,65.00
2022-11-29T01:41:04.262Z,64.90
2022-11-29T01:42:04.242Z,53.50
2022-11-29T01:43:04.240Z,54.20
2022-11-29T01:44:04.224Z,59.70
2022-11-29T01:45:04.222Z,57.80
2022-11-29T01:46:04.244Z,58.90
2022-11-29T01:47:04.194Z,54.70
2022-11-29T01:48:04.187Z,54.10
2022-11-29T01:49:04.179Z,92.20
2022-11-29T01:50:04.166Z,131.50
2022-11-29T01:51:04.170Z,72.30
2022-11-29T01:52:04.151Z,91.50
2022-11-29T01:53:04.137Z,66.80
2022-11-29T01:54:04.128Z,74.80
2022-11-29T01:55:04.126Z,72.20
2022-11-29T01:56:04.162Z,59.40
2022-11-29T01:57:04.098Z,63.20
2022-11-29T01:58:04.090Z,60.90
2022-11-29T01:59:04.082Z,61.00
2022-11-29T02:00:04.079Z,55.00
2022-11-29T02:01:04.130Z,62.20
2022-11-29T02:02:04.118Z,59.50
2022-11-29T02:03:05.042Z,61.80
2022-11-29T02:04:04.034Z,53.50
2022-11-29T02:05:04.022Z,69.70
2022-11-29T02:06:04.031Z,71.30
2022-11-29T02:07:04.010Z,50.50
2022-11-29T02:08:03.996Z,64.20
2022-11-29T02:09:03.987Z,52.00
2022-11-29T02:10:03.990Z,62.60
2022-11-29T02:11:03.983Z,68.60
2022-11-29T02:12:03.964Z,69.00
2022-11-29T02:13:03.966Z,69.30
2022-11-29T02:14:03.946Z,94.10
2022-11-29T02:15:03.932Z,65.60
2022-11-29T02:16:03.984Z,76.80
2022-11-29T02:17:03.927Z,65.50
2022-11-29T02:18:03.906Z,65.20
2022-11-29T02:19:03.897Z,73.50
2022-11-29T02:20:35.794Z,43.60
2022-11-29T02:21:03.878Z,53.50
2022-11-29T02:22:03.885Z,54.10
2022-11-29T02:23:03.857Z,61.50
2022-11-29T02:24:03.859Z,61.70
2022-11-29T02:25:03.843Z,54.80
2022-11-29T02:26:03.836Z,51.60
2022-11-29T02:27:03.839Z,49.30
2022-11-29T02:28:03.815Z,43.40
2022-11-29T02:29:03.809Z,107.50
2022-11-29T02:30:03.798Z,78.40
2022-11-29T02:31:03.855Z,71.30
2022-11-29T02:32:03.792Z,209.90
2022-11-29T02:33:03.775Z,51.40
2022-11-29T02:34:03.763Z,132.50
2022-11-29T02:35:03.756Z,510.80
2022-11-29T02:36:03.741Z,471.90
2022-11-29T02:37:08.563Z,356.30
2022-11-29T02:38:05.725Z,782.80
2022-11-29T02:39:03.714Z,548.30
2022-11-29T02:40:03.712Z,660.70
2022-11-29T02:41:03.696Z,194.60
2022-11-29T02:42:03.696Z,79.80
2022-11-29T02:43:03.676Z,553.30
2022-11-29T02:44:03.666Z,615.90
2022-11-29T02:45:03.665Z,503.30
2022-11-29T02:46:03.669Z,141.90
2022-11-29T02:47:03.647Z,171.80
2022-11-29T02:48:03.627Z,83.10
2022-11-29T02:49:03.616Z,472.80
2022-11-29T02:50:03.612Z,366.40
2022-11-29T02:51:03.601Z,328.60
2022-11-29T02:52:03.605Z,98.40
2022-11-29T02:53:03.580Z,290.80
2022-11-29T02:54:03.569Z,268.80
2022-11-29T02:55:03.565Z,124.30
2022-11-29T02:56:03.554Z,69.90
2022-11-29T02:57:03.551Z,192.10
2022-11-29T02:58:03.535Z,238.20
2022-11-29T02:59:03.539Z,150.30
2022-11-29T03:00:03.521Z,87.30
2022-11-29T03:01:03.543Z,94.80
2022-11-29T03:02:03.691Z,405.60
2022-11-29T03:03:03.495Z,251.80
2022-11-29T03:04:03.483Z,82.30
2022-11-29T03:05:03.477Z,88.30
2022-11-29T03:06:03.466Z,80.10
2022-11-29T03:07:03.467Z,285.10
2022-11-29T03:08:03.447Z,314.70
2022-11-29T03:09:03.440Z,147.80
2022-11-29T03:10:03.427Z,109.90
2022-11-29T03:11:03.423Z,125.70
2022-11-29T03:12:03.423Z,157.70
2022-11-29T03:13:03.411Z,248.70
2022-11-29T03:14:03.390Z,268.60
2022-11-29T03:15:04.424Z,190.90
2022-11-29T03:16:03.486Z,112.80
2022-11-29T03:17:03.381Z,74.90
2022-11-29T03:18:03.357Z,75.00
2022-11-29T03:19:03.344Z,386.40
2022-11-29T03:20:03.342Z,298.80
2022-11-29T03:21:03.334Z,252.70
2022-11-29T03:22:03.323Z,92.90
2022-11-29T03:23:04.312Z,90.00
2022-11-29T03:24:03.304Z,109.60
2022-11-29T03:25:03.300Z,79.50
2022-11-29T03:26:03.289Z,87.60
2022-11-29T03:27:03.283Z,78.60
2022-11-29T03:28:03.268Z,143.50
2022-11-29T03:29:03.259Z,115.40
2022-11-29T03:30:03.349Z,83.70
2022-11-29T03:31:03.294Z,248.90
2022-11-29T03:32:03.255Z,173.00
2022-11-29T03:33:03.230Z,87.00
2022-11-29T03:34:03.213Z,74.60
2022-11-29T03:35:03.204Z,268.50
2022-11-29T03:36:03.199Z,91.20
2022-11-29T03:37:03.195Z,193.50
2022-11-29T03:38:03.174Z,198.20
2022-11-29T03:39:03.163Z,125.30
2022-11-29T03:40:03.150Z,135.60
2022-11-29T03:41:03.146Z,101.20
2022-11-29T03:42:03.148Z,66.20
2022-11-29T03:43:03.129Z,68.50
2022-11-29T03:44:03.228Z,66.30
2022-11-29T03:45:03.111Z,95.10
2022-11-29T03:46:03.271Z,81.90
2022-11-29T03:47:03.106Z,73.30
2022-11-29T03:48:03.084Z,86.30
2022-11-29T03:49:03.073Z,69.50
2022-11-29T03:50:03.064Z,56.40
2022-11-29T03:51:03.050Z,75.40
2022-11-29T03:52:03.058Z,61.40
2022-11-29T03:53:03.032Z,84.90
2022-11-29T03:54:03.023Z,71.20
2022-11-29T03:55:03.009Z,88.10
2022-11-29T03:56:03.006Z,84.20
2022-11-29T03:57:03.001Z,78.60
2022-11-29T03:58:02.985Z,93.60
2022-11-29T03:59:02.975Z,91.40
2022-11-29T04:00:02.978Z,84.60
2022-11-29T04:01:02.957Z,99.80
2022-11-29T04:02:02.957Z,81.00
2022-11-29T04:03:03.028Z,104.50
2022-11-29T04:04:02.924Z,64.60
2022-11-29T04:05:02.916Z,81.70
2022-11-29T04:06:02.907Z,75.30
2022-11-29T04:07:02.907Z,65.50
2022-11-29T04:08:02.928Z,116.20
2022-11-29T04:09:02.880Z,81.20
2022-11-29T04:10:02.870Z,90.30
2022-11-29T04:11:02.865Z,96.10
2022-11-29T04:12:02.862Z,105.30
2022-11-29T04:13:02.844Z,102.80
2022-11-29T04:14:02.831Z,91.40
2022-11-29T04:15:02.823Z,121.90
2022-11-29T04:16:03.011Z,93.10
2022-11-29T04:17:02.813Z,112.70
2022-11-29T04:18:02.798Z,84.80
2022-11-29T04:19:02.785Z,121.30
2022-11-29T04:20:02.775Z,120.60
2022-11-29T04:21:02.766Z,111.10
2022-11-29T04:22:02.768Z,103.70
2022-11-29T04:23:02.743Z,107.40
2022-11-29T04:24:02.737Z,87.00
2022-11-29T04:25:02.724Z,91.10
2022-11-29T04:26:02.709Z,156.90
2022-11-29T04:27:02.715Z,153.80
2022-11-29T04:28:02.699Z,100.70
2022-11-29T04:29:02.684Z,96.70
2022-11-29T04:30:02.680Z,123.00
2022-11-29T04:31:02.727Z,117.00
2022-11-29T04:32:02.669Z,172.10
2022-11-29T04:33:02.654Z,106.90
2022-11-29T04:34:02.639Z,79.50
2022-11-29T04:35:02.634Z,135.90
2022-11-29T04:36:02.763Z,151.30
2022-11-29T04:37:02.625Z,81.90
2022-11-29T04:38:02.599Z,127.50
2022-11-29T04:39:02.595Z,106.80
2022-11-29T04:40:03.010Z,79.90
2022-11-29T04:41:02.576Z,96.60
2022-11-29T04:42:02.580Z,132.80
2022-11-29T04:43:02.556Z,110.30
2022-11-29T04:44:02.567Z,113.50
2022-11-29T04:45:02.546Z,177.70
2022-11-29T04:46:02.616Z,104.20
2022-11-29T04:47:02.535Z,138.70
2022-11-29T04:48:02.519Z,152.50
2022-11-29T04:49:02.513Z,179.00
2022-11-29T04:50:02.505Z,106.50
2022-11-29T04:51:02.497Z,159.70
2022-11-29T04:52:02.510Z,111.00
2022-11-29T04:53:02.474Z,85.20
2022-11-29T04:54:02.465Z,128.90
2022-11-29T04:55:02.463Z,171.50
2022-11-29T04:56:02.446Z,196.20
2022-11-29T04:57:02.449Z,75.10
2022-11-29T04:58:02.440Z,98.00
2022-11-29T04:59:02.422Z,105.50
2022-11-29T05:00:02.412Z,153.10
2022-11-29T05:01:02.407Z,139.10
2022-11-29T05:02:02.451Z,99.20
2022-11-29T05:03:02.455Z,176.00
2022-11-29T05:04:02.378Z,301.50
2022-11-29T05:05:02.370Z,110.10
2022-11-29T05:06:02.355Z,197.10
2022-11-29T05:07:02.363Z,264.70
2022-11-29T05:08:02.338Z,126.50
2022-11-29T05:09:02.331Z,275.70
2022-11-29T05:10:02.319Z,243.80
2022-11-29T05:11:02.313Z,211.50
2022-11-29T05:12:02.305Z,338.20
2022-11-29T05:13:02.308Z,270.30
2022-11-29T05:14:02.285Z,530.60
2022-11-29T05:15:02.274Z,813.60
2022-11-29T05:16:02.284Z,886.10
2022-11-29T05:17:02.254Z,669.60
2022-11-29T05:18:02.262Z,763.80
2022-11-29T05:19:02.239Z,103.20
2022-11-29T05:20:02.236Z,204.10
2022-11-29T05:21:02.223Z,940.70
2022-11-29T05:22:02.220Z,820.50
2022-11-29T05:23:02.260Z,605.10
2022-11-29T05:24:02.207Z,119.90
2022-11-29T05:25:02.190Z,779.90
2022-11-29T05:26:02.180Z,97.40
2022-11-29T05:27:02.173Z,286.00
2022-11-29T05:28:06.969Z,381.80
2022-11-29T05:29:04.157Z,331.10
2022-11-29T05:30:02.141Z,624.20
2022-11-29T05:31:02.244Z,485.60
2022-11-29T05:32:02.125Z,281.60
2022-11-29T05:33:02.134Z,304.40
2022-11-29T05:34:02.109Z,582.20
2022-11-29T05:35:02.099Z,638.00
2022-11-29T05:36:02.089Z,706.70
2022-11-29T05:37:02.084Z,716.20
2022-11-29T05:38:02.113Z,578.90
2022-11-29T05:39:02.070Z,339.30
2022-11-29T05:40:02.055Z,374.90
2022-11-29T05:41:02.048Z,261.90
2022-11-29T05:42:02.038Z,680.40
2022-11-29T05:43:02.044Z,312.70
2022-11-29T05:44:02.020Z,165.50
2022-11-29T05:45:02.015Z,619.10
2022-11-29T05:46:02.031Z,131.40
2022-11-29T05:47:01.995Z,140.70
2022-11-29T05:48:01.993Z,188.60
2022-11-29T05:49:01.975Z,100.80
2022-11-29T05:50:01.970Z,118.00
2022-11-29T05:51:01.957Z,124.20
2022-11-29T05:52:01.941Z,109.60
2022-11-29T05:53:01.949Z,104.80
2022-11-29T05:54:01.929Z,100.70
2022-11-29T05:55:01.920Z,91.30
2022-11-29T05:56:01.910Z,432.60
2022-11-29T05:57:01.901Z,428.80
2022-11-29T05:58:01.903Z,209.00
2022-11-29T05:59:01.900Z,224.40
2022-11-29T06:00:01.903Z,87.10
2022-11-29T06:01:01.869Z,123.40
2022-11-29T06:02:01.907Z,164.30
2022-11-29T06:03:01.886Z,368.90
2022-11-29T06:04:01.859Z,127.40
2022-11-29T06:05:01.834Z,82.00
2022-11-29T06:06:01.820Z,115.90
2022-11-29T06:07:01.833Z,210.20
2022-11-29T06:08:01.815Z,235.70
2022-11-29T06:09:01.794Z,157.90
2022-11-29T06:10:02.230Z,105.70
2022-11-29T06:11:02.775Z,137.20
2022-11-29T06:12:01.772Z,164.40
2022-11-29T06:13:01.756Z,120.80
2022-11-29T06:14:02.753Z,356.90
2022-11-29T06:15:01.745Z,568.00
2022-11-29T06:16:01.762Z,701.30
2022-11-29T06:17:01.718Z,821.70
2022-11-29T06:18:01.723Z,868.20
2022-11-29T06:19:01.698Z,859.10
2022-11-29T06:20:01.690Z,972.60
2022-11-29T06:21:01.677Z,533.00
2022-11-29T06:22:01.677Z,499.80
2022-11-29T06:23:01.673Z,713.90
2022-11-29T06:24:01.651Z,625.50
2022-11-29T06:25:01.639Z,301.70
2022-11-29T06:26:04.246Z,480.90
2022-11-29T06:27:02.629Z,252.70
2022-11-29T06:28:01.628Z,199.50
2022-11-29T06:29:01.619Z,538.90
2022-11-29T06:30:01.605Z,314.20
2022-11-29T06:31:01.690Z,593.80
2022-11-29T06:32:01.582Z,671.20
2022-11-29T06:33:01.583Z,723.20
2022-11-29T06:34:01.567Z,446.50
2022-11-29T06:35:01.556Z,517.90
2022-11-29T06:36:01.545Z,588.40
2022-11-29T06:37:01.539Z,314.60
2022-11-29T06:38:01.539Z,692.60
2022-11-29T06:39:01.518Z,575.20
2022-11-29T06:40:01.520Z,410.10
2022-11-29T06:41:02.399Z,254.10
2022-11-29T06:42:02.495Z,130.20
2022-11-29T06:43:01.498Z,143.60
2022-11-29T06:44:01.482Z,102.50
2022-11-29T06:45:01.472Z,221.90
2022-11-29T06:46:01.464Z,94.70
2022-11-29T06:47:01.488Z,137.20
2022-11-29T06:48:01.456Z,78.50
2022-11-29T06:49:02.432Z,78.30
2022-11-29T06:50:02.428Z,80.80
2022-11-29T06:51:01.416Z,79.10
2022-11-29T06:52:01.412Z,94.20
2022-11-29T06:53:01.412Z,73.80
2022-11-29T06:54:01.390Z,272.10
2022-11-29T06:55:01.408Z,147.70
2022-11-29T06:56:01.378Z,171.40
2022-11-29T06:57:01.369Z,124.30
2022-11-29T06:58:01.372Z,143.40
2022-11-29T06:59:01.358Z,110.30
2022-11-29T07:00:01.398Z,97.00
2022-11-29T07:01:01.425Z,89.20
2022-11-29T07:02:01.351Z,87.90
2022-11-29T07:03:01.317Z,98.20
2022-11-29T07:04:01.299Z,98.60
2022-11-29T07:05:02.292Z,81.40
2022-11-29T07:06:01.289Z,99.80
2022-11-29T07:07:01.275Z,92.80
2022-11-29T07:08:01.410Z,84.70
2022-11-29T07:09:01.261Z,95.50
2022-11-29T07:10:01.252Z,89.00
2022-11-29T07:11:01.239Z,99.60
2022-11-29T07:12:01.229Z,99.90
2022-11-29T07:13:01.240Z,101.80
2022-11-29T07:14:01.215Z,100.40
2022-11-29T07:15:01.205Z,97.80
2022-11-29T07:16:01.246Z,93.30
2022-11-29T07:17:01.193Z,97.90
2022-11-29T07:18:01.192Z,102.60
2022-11-29T07:19:01.175Z,100.50
2022-11-29T07:20:01.167Z,108.50
2022-11-29T07:21:01.152Z,135.40
2022-11-29T07:22:01.142Z,108.10
2022-11-29T07:23:01.145Z,97.20
2022-11-29T07:24:01.121Z,156.20
2022-11-29T07:25:01.123Z,118.50
2022-11-29T07:26:01.103Z,94.30
2022-11-29T07:27:01.094Z,90.30
2022-11-29T07:28:01.096Z,111.10
2022-11-29T07:29:01.074Z,138.70
2022-11-29T07:30:01.065Z,136.50
2022-11-29T07:31:01.108Z,120.60
2022-11-29T07:32:01.053Z,123.30
2022-11-29T07:33:01.059Z,117.00
2022-11-29T07:34:01.037Z,115.90
2022-11-29T07:35:01.024Z,129.00
2022-11-29T07:36:01.017Z,109.20
2022-11-29T07:37:01.008Z,105.30
2022-11-29T07:38:01.004Z,161.40
2022-11-29T07:39:00.998Z,270.40
2022-11-29T07:40:00.981Z,191.80
2022-11-29T07:41:00.971Z,96.20
2022-11-29T07:42:00.958Z,143.60
2022-11-29T07:43:00.963Z,137.30
2022-11-29T07:44:00.944Z,100.40
2022-11-29T07:45:00.937Z,107.30
2022-11-29T07:46:00.924Z,118.70
2022-11-29T07:47:00.964Z,205.50
2022-11-29T07:48:00.905Z,139.30
2022-11-29T07:49:00.905Z,140.30
2022-11-29T07:50:00.883Z,110.00
2022-11-29T07:51:00.871Z,118.50
2022-11-29T07:52:00.860Z,92.50
2022-11-29T07:53:00.851Z,172.50
2022-11-29T07:54:00.857Z,107.80
2022-11-29T07:55:00.833Z,104.20
2022-11-29T07:56:00.823Z,132.60
2022-11-29T07:57:00.814Z,100.80
2022-11-29T07:58:00.806Z,158.30
2022-11-29T07:59:00.826Z,188.50
2022-11-29T08:00:00.787Z,146.00
2022-11-29T08:01:00.819Z,125.40
2022-11-29T08:02:00.800Z,133.30
2022-11-29T08:03:00.759Z,122.20
2022-11-29T08:04:00.761Z,175.70
2022-11-29T08:05:00.743Z,211.20
2022-11-29T08:06:00.731Z,170.50
2022-11-29T08:07:00.722Z,101.80
2022-11-29T08:08:00.748Z,134.90
2022-11-29T08:09:00.717Z,210.70
2022-11-29T08:10:00.695Z,188.90
2022-11-29T08:11:00.686Z,132.50
2022-11-29T08:12:00.679Z,158.40
2022-11-29T08:13:00.667Z,149.70
2022-11-29T08:14:00.671Z,103.60
2022-11-29T08:15:00.652Z,125.10
2022-11-29T08:16:00.673Z,123.40
2022-11-29T08:17:00.634Z,113.00
2022-11-29T08:18:00.633Z,99.10
2022-11-29T08:19:00.627Z,113.40
2022-11-29T08:20:32.511Z,105.70
2022-11-29T08:21:00.598Z,154.60
2022-11-29T08:22:00.584Z,109.70
2022-11-29T08:23:00.572Z,152.90
2022-11-29T08:24:00.581Z,117.20
2022-11-29T08:25:00.554Z,99.20
2022-11-29T08:26:00.557Z,106.40
2022-11-29T08:27:00.540Z,184.00
2022-11-29T08:28:00.531Z,187.90
2022-11-29T08:29:00.533Z,128.70
2022-11-29T08:30:00.514Z,126.40
2022-11-29T08:31:00.502Z,98.90
2022-11-29T08:32:00.557Z,160.60
2022-11-29T08:33:00.481Z,180.30
2022-11-29T08:34:00.484Z,88.20
2022-11-29T08:35:00.469Z,99.10
2022-11-29T08:36:00.457Z,87.70
2022-11-29T08:37:00.450Z,83.90
2022-11-29T08:38:00.438Z,121.80
2022-11-29T08:39:07.461Z,88.20
2022-11-29T08:40:02.416Z,85.30
2022-11-29T08:41:00.403Z,86.60
2022-11-29T08:42:00.431Z,76.90
2022-11-29T08:43:00.389Z,80.10
2022-11-29T08:44:00.390Z,81.70
2022-11-29T08:45:00.366Z,165.80
2022-11-29T08:46:00.420Z,134.80
2022-11-29T08:47:00.354Z,146.70
2022-11-29T08:48:00.347Z,85.80
2022-11-29T08:49:00.338Z,76.10
2022-11-29T08:50:00.319Z,90.60
2022-11-29T08:51:00.311Z,104.00
2022-11-29T08:52:00.301Z,90.40
2022-11-29T08:53:00.292Z,95.60
2022-11-29T08:54:00.290Z,104.30
2022-11-29T08:55:03.109Z,101.90
2022-11-29T08:56:01.263Z,89.30
2022-11-29T08:57:37.449Z,91.40
2022-11-29T08:58:02.243Z,117.30
2022-11-29T08:59:00.242Z,107.40
2022-11-29T09:00:00.243Z,82.70
2022-11-29T09:01:00.288Z,75.00
2022-11-29T09:02:01.232Z,98.20
2022-11-29T09:03:00.192Z,95.50
2022-11-29T09:04:00.192Z,82.60
2022-11-29T09:05:00.162Z,115.40
2022-11-29T09:06:01.164Z,101.90
2022-11-29T09:07:00.146Z,83.50
2022-11-29T09:08:00.282Z,92.90
2022-11-29T09:09:00.137Z,78.60
2022-11-29T09:10:00.116Z,85.30
2022-11-29T09:11:00.107Z,111.70
2022-11-29T09:12:00.100Z,122.30
2022-11-29T09:13:00.092Z,66.80
2022-11-29T09:14:00.125Z,84.10
2022-11-29T09:15:00.080Z,91.80
2022-11-29T09:16:00.088Z,66.60
2022-11-29T09:17:00.116Z,92.30
2022-11-29T09:18:00.044Z,99.90
2022-11-29T09:19:00.061Z,65.90
2022-11-29T09:20:00.029Z,46.50
2022-11-29T09:21:00.030Z,65.00
2022-11-29T09:22:00.015Z,112.40
2022-11-29T09:22:59.996Z,86.90
2022-11-29T09:24:00.064Z,95.20
2022-11-29T09:24:59.978Z,100.20
2022-11-29T09:25:59.972Z,155.30
2022-11-29T09:26:59.993Z,138.90
2022-11-29T09:27:59.947Z,89.00
2022-11-29T09:28:59.950Z,91.80
2022-11-29T09:29:59.927Z,104.00
2022-11-29T09:30:59.933Z,76.00
2022-11-29T09:31:59.944Z,152.50
2022-11-29T09:32:59.903Z,75.90
2022-11-29T09:33:59.905Z,80.30
2022-11-29T09:34:59.882Z,72.10
2022-11-29T09:35:59.869Z,85.20
2022-11-29T09:36:59.865Z,78.30
2022-11-29T09:37:59.859Z,87.70
2022-11-29T09:38:59.886Z,111.20
2022-11-29T09:39:59.832Z,93.20
2022-11-29T09:40:59.827Z,76.90
2022-11-29T09:41:59.815Z,101.70
2022-11-29T09:42:59.808Z,77.20
2022-11-29T09:43:59.809Z,71.50
2022-11-29T09:44:59.797Z,84.20
2022-11-29T09:45:59.815Z,69.50
2022-11-29T09:46:59.775Z,66.50
2022-11-29T09:47:59.765Z,64.40
2022-11-29T09:48:59.767Z,85.40
2022-11-29T09:49:59.863Z,86.40
2022-11-29T09:50:59.733Z,106.90
2022-11-29T09:51:59.757Z,81.70
2022-11-29T09:52:59.716Z,89.90
2022-11-29T09:53:59.719Z,95.00
2022-11-29T09:54:59.701Z,96.80
2022-11-29T09:55:59.697Z,94.70
2022-11-29T09:56:59.678Z,105.50
2022-11-29T09:57:59.671Z,109.60
2022-11-29T09:58:59.674Z,90.70
2022-11-29T09:59:59.653Z,107.80
2022-11-29T10:00:59.666Z,99.00
2022-11-29T10:01:59.661Z,115.50
2022-11-29T10:02:59.621Z,115.70
2022-11-29T10:03:59.631Z,114.60
2022-11-29T10:04:59.622Z,136.70
2022-11-29T10:05:59.605Z,124.20
2022-11-29T10:06:59.594Z,154.40
2022-11-29T10:07:59.610Z,147.00
2022-11-29T10:09:00.580Z,125.90
2022-11-29T10:09:59.557Z,131.50
2022-11-29T10:10:59.554Z,108.70
2022-11-29T10:11:59.589Z,155.20
2022-11-29T10:12:59.537Z,110.40
2022-11-29T10:13:59.547Z,147.50
2022-11-29T10:14:59.572Z,114.00
2022-11-29T10:15:59.512Z,97.30
2022-11-29T10:16:59.652Z,105.50
2022-11-29T10:17:59.539Z,121.40
2022-11-29T10:18:59.499Z,162.60
2022-11-29T10:19:59.539Z,126.50
2022-11-29T10:20:59.465Z,157.80
2022-11-29T10:21:59.468Z,143.60
2022-11-29T10:22:59.446Z,145.50
2022-11-29T10:23:59.429Z,117.20
2022-11-29T10:24:59.433Z,127.70
2022-11-29T10:25:59.408Z,115.70
2022-11-29T10:26:59.411Z,137.30
2022-11-29T10:27:59.388Z,123.10
2022-11-29T10:28:59.383Z,148.60
2022-11-29T10:29:59.425Z,132.70
2022-11-29T10:30:59.434Z,141.70
2022-11-29T10:31:59.365Z,123.10
2022-11-29T10:32:59.406Z,146.40
2022-11-29T10:33:59.328Z,152.80
2022-11-29T10:34:59.348Z,120.10
2022-11-29T10:35:59.332Z,141.90
2022-11-29T10:36:59.298Z,168.70
2022-11-29T10:38:28.992Z,204.00
2022-11-29T10:39:01.291Z,148.70
2022-11-29T10:39:59.281Z,155.90
2022-11-29T10:40:59.260Z,184.10
2022-11-29T10:41:59.252Z,166.70
2022-11-29T10:42:59.241Z,121.10
2022-11-29T10:43:59.235Z,105.20
2022-11-29T10:44:59.236Z,166.80
2022-11-29T10:45:59.259Z,104.70
2022-11-29T10:46:59.204Z,142.80
2022-11-29T10:47:59.194Z,102.30
2022-11-29T10:48:59.189Z,112.90
2022-11-29T10:49:59.189Z,122.40
2022-11-29T10:50:59.184Z,115.00
2022-11-29T10:51:59.206Z,113.30
2022-11-29T10:53:00.247Z,122.30
2022-11-29T10:54:00.148Z,122.10
2022-11-29T10:54:59.269Z,127.10
2022-11-29T10:55:59.124Z,127.10
2022-11-29T10:56:59.125Z,181.20
2022-11-29T10:57:59.139Z,69.20
2022-11-29T10:58:59.117Z,42.20
2022-11-29T10:59:59.095Z,40.70
2022-11-29T11:00:59.117Z,41.40
2022-11-29T11:01:59.063Z,59.20
2022-11-29T11:02:59.061Z,60.60
2022-11-29T11:03:59.050Z,59.40
2022-11-29T11:04:59.049Z,45.40
2022-11-29T11:05:59.082Z,43.90
2022-11-29T11:06:59.038Z,40.00
2022-11-29T11:07:59.132Z,40.00
2022-11-29T11:08:59.058Z,43.50
2022-11-29T11:09:59.025Z,37.80
2022-11-29T11:11:01.830Z,43.20
2022-11-29T11:11:59.976Z,38.00
2022-11-29T11:12:58.957Z,37.00
2022-11-29T11:13:58.948Z,41.00
2022-11-29T11:14:58.951Z,38.00
2022-11-29T11:15:58.929Z,45.40
2022-11-29T11:16:59.005Z,44.40
2022-11-29T11:17:58.920Z,35.80
2022-11-29T11:18:58.905Z,42.60
2022-11-29T11:19:58.907Z,33.00
2022-11-29T11:20:58.885Z,36.70
2022-11-29T11:21:58.875Z,37.00
2022-11-29T11:22:58.876Z,34.00
2022-11-29T11:23:58.859Z,35.80
2022-11-29T11:24:58.879Z,43.20
2022-11-29T11:25:58.831Z,42.70
2022-11-29T11:26:58.831Z,44.20
2022-11-29T11:27:58.815Z,40.30
2022-11-29T11:28:58.814Z,36.80
2022-11-29T11:29:58.805Z,58.10
2022-11-29T11:30:58.826Z,53.90
2022-11-29T11:31:58.832Z,38.50
2022-11-29T11:32:58.770Z,36.30
2022-11-29T11:33:58.758Z,36.30
2022-11-29T11:34:58.767Z,33.70
2022-11-29T11:35:58.739Z,37.40
2022-11-29T11:36:58.730Z,44.50
2022-11-29T11:37:58.723Z,48.50
2022-11-29T11:38:58.718Z,42.70
2022-11-29T11:39:58.785Z,50.50
2022-11-29T11:40:58.697Z,59.00
2022-11-29T11:41:58.734Z,62.00
2022-11-29T11:42:58.675Z,41.60
2022-11-29T11:43:58.671Z,31.90
2022-11-29T11:44:58.971Z,34.90
2022-11-29T11:45:58.695Z,34.40
2022-11-29T11:46:58.633Z,32.10
2022-11-29T11:47:58.629Z,48.30
2022-11-29T11:48:58.615Z,51.30
2022-11-29T11:49:58.620Z,51.70
2022-11-29T11:50:58.624Z,53.70
2022-11-29T11:51:58.610Z,56.00
2022-11-29T11:52:58.585Z,53.20
2022-11-29T11:53:58.577Z,56.40
2022-11-29T11:54:58.574Z,54.80
2022-11-29T11:55:58.552Z,52.70
2022-11-29T11:56:58.547Z,33.90
2022-11-29T11:57:58.540Z,40.20
2022-11-29T11:58:58.529Z,43.80
2022-11-29T12:00:03.387Z,42.80
2022-11-29T12:01:05.006Z,45.60
2022-11-29T12:02:01.180Z,47.80
2022-11-29T12:02:58.554Z,40.00
2022-11-29T12:03:58.511Z,31.70
2022-11-29T12:04:58.537Z,28.10
2022-11-29T12:05:58.468Z,35.70
2022-11-29T12:06:58.468Z,37.60
2022-11-29T12:08:13.886Z,36.10
2022-11-29T12:09:00.437Z,43.40
2022-11-29T12:09:58.442Z,48.80
2022-11-29T12:11:00.568Z,42.00
2022-11-29T12:11:59.435Z,48.20
2022-11-29T12:12:58.398Z,47.50
2022-11-29T12:13:58.382Z,35.10
2022-11-29T12:14:58.385Z,30.80
2022-11-29T12:15:58.381Z,51.00
2022-11-29T12:16:58.351Z,54.70
2022-11-29T12:17:58.339Z,57.00
2022-11-29T12:18:58.358Z,61.60
2022-11-29T12:19:58.332Z,66.30
2022-11-29T12:20:58.318Z,51.20
2022-11-29T12:21:58.306Z,53.80
2022-11-29T12:22:58.312Z,36.80
2022-11-29T12:23:58.288Z,37.20
2022-11-29T12:24:58.289Z,30.20
2022-11-29T12:25:58.286Z,35.90
2022-11-29T12:26:59.062Z,32.60
2022-11-29T12:27:59.266Z,40.30
2022-11-29T12:28:58.243Z,47.10
2022-11-29T12:29:58.248Z,42.60
2022-11-29T12:30:58.276Z,40.80
2022-11-29T12:31:58.218Z,46.20
2022-11-29T12:32:58.208Z,44.40
2022-11-29T12:33:58.197Z,45.40
2022-11-29T12:34:58.203Z,58.40
2022-11-29T12:35:58.178Z,48.80
2022-11-29T12:36:58.163Z,46.20
2022-11-29T12:37:58.155Z,47.30
2022-11-29T12:38:59.151Z,41.70